Change the Weather History Date:

Tuesday, May 7, 2013

  Actual Average Record
Temperature  
Mean Temperature 72 °F -  
Max Temperature 77 °F - - ()
Min Temperature 68 °F - - ()
Cooling Degree Days 8    
Growing Degree Days 22 (Base 50)    
Moisture  
Dew Point 67 °F    
Average Humidity 80    
Maximum Humidity 100    
Minimum Humidity 68    
Precipitation  
Precipitation 0.08 in - - ()
Sea Level Pressure  
Sea Level Pressure 30.02 in    
Wind  
Wind Speed 25 mph ()    
Max Wind Speed 36 mph    
Max Gust Speed 43 mph    
T = Trace of Precipitation, MM = Missing Value Source: Averaged Metar Reports

Daily Weather History Graph

Daily Weather History Graph

Search for Another Location

Airport or City:

Trip Planner

Search our weather history database for the weather conditions in past years. The results will help you decide how hot, cold, wet, or windy it might be!

Date:

Astronomy

May. 07, 2013 Rise Set
Actual Time 6:22 AM AEST 5:38 PM AEST
Civil Twilight 5:59 AM AEST 6:01 PM AEST
Nautical Twilight 5:33 AM AEST 6:28 PM AEST
Astronomical Twilight 5:07 AM AEST 6:54 PM AEST
Moon 3:42 AM AEST (5/7) 3:41 PM AEST (5/7)
Length of Visible Light 12h 01m
Length of Day
11h 15m
Waning Crescent, 8% of the Moon is Illuminated
May 7
Waning Crescent
May 10
New
May 18
First Quarter
May 25
Full
Jun 1
Last Quarter

Hourly Weather History & Observations

Time (AEST) Temp. Dew Point Humidity Pressure Visibility Wind Dir Wind Speed Gust Speed Precip Events Conditions
12:00 AM 69 °F - % 30.03 in - ENE 12.7 mph - -  
12:00 AM 69.8 °F 69.8 °F 100% 30.01 in - ENE 12.7 mph - N/A   Unknown
12:05 AM 68.0 °F 68.0 °F 100% 30.01 in - ENE 17.3 mph 31.1 mph N/A   Unknown
12:35 AM 69.8 °F 69.8 °F 100% 29.98 in - NE 27.6 mph - N/A   Unknown
12:37 AM 69.8 °F 69.8 °F 100% 29.98 in - North 27.6 mph - N/A   Unknown
12:38 AM 69.8 °F 69.8 °F 100% 30.01 in - North 25.3 mph 36.8 mph N/A   Unknown
12:42 AM 69.8 °F 69.8 °F 100% 30.01 in - NNE 16.1 mph 36.8 mph N/A   Unknown
12:53 AM 71.6 °F 68.0 °F 88% 29.98 in - East 23.0 mph - N/A   Unknown
1:00 AM 71.6 °F 69.8 °F 94% 29.98 in - ESE 26.5 mph - N/A   Unknown
1:03 AM 73.4 °F 68.0 °F 83% 29.98 in - ESE 28.8 mph 42.6 mph N/A   Unknown
1:30 AM 73.4 °F 68.0 °F 83% 29.98 in - ESE 33.4 mph - N/A   Unknown
2:00 AM 75.2 °F 66.2 °F 73% 29.98 in - East 33.4 mph - N/A   Unknown
2:30 AM 73.4 °F 66.2 °F 78% 29.95 in - ESE 33.4 mph - N/A   Unknown
3:00 AM 74 °F 65 °F 68% 29.97 in - ESE 32.2 mph - -  
3:00 AM 75.2 °F 66.2 °F 73% 29.98 in - ESE 32.2 mph - N/A   Unknown
3:30 AM 75.2 °F 68.0 °F 78% 29.95 in - ESE 33.4 mph - N/A   Unknown
4:00 AM 75.2 °F 66.2 °F 73% 29.98 in - ESE 32.2 mph - N/A   Unknown
4:30 AM 75.2 °F 66.2 °F 73% 29.98 in - East 29.9 mph - N/A   Unknown
5:00 AM 75.2 °F 66.2 °F 73% 29.98 in - ESE 29.9 mph - N/A   Unknown
5:30 AM 75.2 °F 66.2 °F 73% 29.98 in - ESE 28.8 mph - N/A   Unknown
6:00 AM 74 °F 66 °F 69% 30.00 in - ESE 29.9 mph - -  
6:00 AM 75.2 °F 66.2 °F 73% 29.98 in - ESE 29.9 mph - N/A   Unknown
6:30 AM 75.2 °F 66.2 °F 73% 30.01 in - ESE 32.2 mph - N/A   Unknown
7:00 AM 75.2 °F 66.2 °F 73% 30.01 in - ESE 29.9 mph - N/A   Unknown
7:30 AM 75.2 °F 64.4 °F 69% 30.04 in - ESE 31.1 mph - N/A   Unknown
8:00 AM 75.2 °F 66.2 °F 73% 30.04 in - ESE 29.9 mph - N/A   Unknown
8:30 AM 77.0 °F 66.2 °F 69% 30.04 in - ESE 27.6 mph - N/A   Unknown
9:00 AM 75 °F 68 °F 72% 30.06 in - ESE 28.8 mph - -  
9:00 AM 75.2 °F 68.0 °F 78% 30.06 in - ESE 28.8 mph - N/A   Unknown
9:30 AM 75.2 °F 68.0 °F 78% 30.06 in - ESE 31.1 mph - N/A   Unknown
10:00 AM 75.2 °F 69.8 °F 83% 30.06 in - ESE 28.8 mph - N/A   Unknown
10:30 AM 75.2 °F 68.0 °F 78% 30.06 in - ESE 25.3 mph - N/A   Unknown
11:00 AM 75.2 °F 68.0 °F 78% 30.06 in - ESE 29.9 mph - N/A   Unknown
11:30 AM 73.4 °F 68.0 °F 83% 30.04 in - ESE 35.7 mph - N/A   Unknown
12:00 PM 73.4 °F 68.0 °F 83% 30.04 in - ESE 29.9 mph - N/A   Unknown
12:30 PM 69.8 °F 69.8 °F 100% 30.04 in - ESE 16.1 mph - N/A   Unknown
12:41 PM 71.6 °F 69.8 °F 94% 30.04 in - ESE 19.6 mph 31.1 mph N/A   Unknown
1:00 PM 75.2 °F 68.0 °F 78% 30.01 in - ESE 31.1 mph - N/A   Unknown
1:30 PM 75.2 °F 66.2 °F 73% 30.01 in - ESE 32.2 mph - N/A   Unknown
2:00 PM 75.2 °F 68.0 °F 78% 30.01 in - ESE 33.4 mph - N/A   Unknown
2:30 PM 75.2 °F 68.0 °F 78% 29.98 in - ESE 33.4 mph - N/A   Unknown
3:00 PM 75 °F 68 °F 73% 30.00 in - ESE 33.4 mph - -  
3:00 PM 75.2 °F 68.0 °F 78% 30.01 in - ESE 33.4 mph - N/A   Unknown
3:30 PM 75.2 °F 66.2 °F 73% 30.01 in - ESE 32.2 mph - N/A   Unknown
4:00 PM 75.2 °F 68.0 °F 78% 30.01 in - ESE 31.1 mph - N/A   Unknown
4:30 PM 75.2 °F 66.2 °F 73% 30.01 in - ESE 31.1 mph - N/A   Unknown
5:00 PM 73.4 °F 68.0 °F 83% 30.04 in - SE 29.9 mph - N/A   Unknown
5:30 PM 73.4 °F 68.0 °F 83% 30.04 in - SE 28.8 mph - N/A   Unknown
6:00 PM 73.4 °F 66.2 °F 78% 30.04 in - SE 31.1 mph - N/A   Unknown
6:30 PM 73.4 °F 68.0 °F 83% 30.04 in - SE 25.3 mph - N/A   Unknown
7:00 PM 75.2 °F 68.0 °F 78% 30.04 in - ESE 27.6 mph - N/A   Unknown
7:30 PM 75.2 °F 68.0 °F 78% 30.06 in - ESE 31.1 mph - N/A   Unknown
8:00 PM 75.2 °F 66.2 °F 73% 30.06 in - ESE 29.9 mph - N/A   Unknown
8:30 PM 75.2 °F 64.4 °F 69% 30.06 in - ESE 33.4 mph - N/A   Unknown
9:00 PM 73 °F 67 °F 77% 30.09 in - SE 25.3 mph - -  
9:00 PM 73.4 °F 68.0 °F 83% 30.09 in - SE 25.3 mph - N/A   Unknown
9:30 PM 75.2 °F 66.2 °F 73% 30.06 in - ESE 31.1 mph - N/A   Unknown
10:00 PM 75.2 °F 66.2 °F 73% 30.06 in - ESE 32.2 mph - N/A   Unknown
10:30 PM 73.4 °F 66.2 °F 78% 30.09 in - ESE 28.8 mph - N/A   Unknown
11:00 PM 75.2 °F 68.0 °F 78% 30.06 in - ESE 29.9 mph - N/A   Unknown
11:23 PM 71.6 °F 68.0 °F 88% 30.06 in - SE 31.1 mph 42.6 mph N/A   Unknown
11:30 PM 71.6 °F 69.8 °F 94% 30.06 in - SE 31.1 mph 42.6 mph N/A   Unknown